Time;durP1;ratioP1;P1;durP2;ratioP2;P2;SDS_P1;SDS_P2;PMS_P1;PMS_P2;Temp;Humidity;BMP_temperature;BMP_pressure;BME280_temperature;BME280_humidity;BME280_pressure;Samples;Min_cycle;Max_cycle;Signal;HPM_P1;HPM_P2
2022/05/29 00:00:39;;;;;;;;;;;8.60;93.50;;;;;;5547724;22;19936;-79
2022/05/29 00:03:06;;;;;;;;;;;8.60;94.20;;;;;;5039421;28;19932;-80
2022/05/29 00:05:34;;;;;;;;;;;8.50;94.00;;;;;;5053197;28;19931;-77
2022/05/29 00:08:01;;;;;;;;;;;8.50;94.40;;;;;;5051155;28;19924;-80
2022/05/29 00:10:30;;;;;;;;;;;8.50;94.50;;;;;;5042444;28;19931;-79
2022/05/29 00:12:57;;;;;;;;;;;8.40;94.20;;;;;;5049014;28;20010;-79
2022/05/29 00:15:24;;;;;;;;;;;8.40;94.70;;;;;;5017070;28;19926;-80
2022/05/29 00:17:51;;;;;;;;;;;8.40;94.90;;;;;;5028044;28;19925;-78
2022/05/29 00:20:18;;;;;;;;;;;8.30;94.70;;;;;;5021302;28;19932;-79
2022/05/29 00:22:46;;;;;;;;;;;8.30;95.20;;;;;;5038147;28;19936;-78
2022/05/29 00:25:13;;;;;;;;;;;8.30;95.30;;;;;;5035156;28;20011;-79
2022/05/29 00:27:41;;;;;;;;;;;8.20;95.30;;;;;;5032481;28;19940;-79
2022/05/29 00:30:09;;;;;;;;;;;8.20;95.60;;;;;;5034300;28;19931;-78
2022/05/29 00:32:36;;;;;;;;;;;8.20;95.80;;;;;;5041247;28;20368;-81
2022/05/29 00:35:03;;;;;;;;;;;8.20;96.10;;;;;;5036849;28;19921;-80
2022/05/29 00:37:32;;;;;;;;;;;8.20;96.30;;;;;;5035594;28;19928;-80
2022/05/29 00:40:01;;;;;;;;;;;8.10;96.40;;;;;;5029269;28;19941;-82
2022/05/29 00:42:28;;;;;;;;;;;8.10;96.70;;;;;;5033477;28;19925;-80
2022/05/29 00:44:56;;;;;;;;;;;8.10;96.90;;;;;;5042596;28;20380;-80
2022/05/29 00:47:27;;;;;;;;;;;8.10;97.00;;;;;;5037645;28;19920;-83
2022/05/29 00:49:55;;;;;;;;;;;8.10;97.00;;;;;;5038669;28;19976;-83
2022/05/29 00:52:23;;;;;;;;;;;8.10;97.40;;;;;;5039602;28;20379;-81
2022/05/29 00:54:54;;;;;;;;;;;8.20;97.90;;;;;;5029291;28;20028;-81
2022/05/29 00:57:25;;;;;;;;;;;8.20;98.10;;;;;;5045383;28;19955;-83
2022/05/29 00:59:53;;;;;;;;;;;8.20;98.10;;;;;;5036388;28;19928;-80
2022/05/29 01:02:21;;;;;;;;;;;8.10;97.80;;;;;;5018383;28;19921;-80
2022/05/29 01:04:48;;;;;;;;;;;8.10;98.10;;;;;;5035484;28;20463;-81
2022/05/29 01:07:16;;;;;;;;;;;8.10;98.10;;;;;;5028731;28;19925;-80
2022/05/29 01:09:45;;;;;;;;;;;8.10;98.60;;;;;;5030979;28;19925;-80
2022/05/29 01:12:15;;;;;;;;;;;8.00;98.60;;;;;;5042686;28;19978;-82
2022/05/29 01:14:46;;;;;;;;;;;7.90;98.70;;;;;;5045952;28;20540;-80
2022/05/29 01:17:20;;;;;;;;;;;7.90;98.40;;;;;;5031984;28;20613;-82
2022/05/29 01:20:04;;;;;;;;;;;7.90;98.50;;;;;;5022449;28;20016;-82
2022/05/29 01:23:05;;;;;;;;;;;7.80;98.90;;;;;;5016104;28;19921;-80
2022/05/29 01:25:42;;;;;;;;;;;5.80;98.60;;;;;;4957980;28;20312;-80
2022/05/29 01:28:13;;;;;;;;;;;7.70;99.50;;;;;;5005616;28;19921;-79
2022/05/29 01:30:43;;;;;;;;;;;7.70;98.90;;;;;;5020627;28;19936;-78
2022/05/29 01:33:19;;;;;;;;;;;7.60;99.80;;;;;;5031611;28;20777;-78
2022/05/29 01:35:48;;;;;;;;;;;7.60;99.50;;;;;;5016964;28;19925;-78
2022/05/29 01:38:18;;;;;;;;;;;7.60;99.70;;;;;;5013895;28;19929;-78
2022/05/29 01:40:48;;;;;;;;;;;7.50;99.90;;;;;;5014847;28;19921;-81
2022/05/29 01:43:21;;;;;;;;;;;7.50;99.90;;;;;;5037753;28;19924;-80
2022/05/29 01:45:54;;;;;;;;;;;7.50;99.90;;;;;;5035957;28;19921;-81
2022/05/29 01:48:24;;;;;;;;;;;7.50;99.90;;;;;;5005272;28;19932;-81
2022/05/29 01:50:54;;;;;;;;;;;7.40;99.90;;;;;;5015506;28;19933;-82
2022/05/29 01:53:23;;;;;;;;;;;7.40;99.90;;;;;;5024771;28;19947;-77
2022/05/29 01:55:52;;;;;;;;;;;7.30;99.90;;;;;;5013617;28;19928;-78
2022/05/29 01:58:22;;;;;;;;;;;7.30;99.90;;;;;;5013476;28;19921;-78
2022/05/29 02:00:50;;;;;;;;;;;7.30;99.90;;;;;;5018430;28;19921;-76
2022/05/29 02:03:19;;;;;;;;;;;7.30;99.90;;;;;;5013646;28;19956;-79
2022/05/29 02:05:49;;;;;;;;;;;7.20;99.90;;;;;;5014985;28;19921;-77
2022/05/29 02:08:18;;;;;;;;;;;7.20;99.90;;;;;;5031865;28;19925;-79
2022/05/29 02:10:46;;;;;;;;;;;7.20;99.90;;;;;;5030665;28;19925;-79
2022/05/29 02:13:17;;;;;;;;;;;7.20;99.90;;;;;;5031581;28;19925;-78
2022/05/29 02:15:54;;;;;;;;;;;7.20;99.90;;;;;;5031387;28;19932;-78
2022/05/29 02:18:23;;;;;;;;;;;7.20;99.90;;;;;;5032208;28;20432;-78
2022/05/29 02:20:51;;;;;;;;;;;7.20;99.90;;;;;;5012257;28;19944;-79
2022/05/29 02:23:21;;;;;;;;;;;7.20;99.90;;;;;;5040420;28;20440;-78
2022/05/29 02:25:48;;;;;;;;;;;7.30;99.90;;;;;;5031560;28;19921;-79
2022/05/29 02:28:20;;;;;;;;;;;7.30;99.90;;;;;;5031895;28;19928;-78
2022/05/29 02:30:49;;;;;;;;;;;7.40;99.90;;;;;;5032491;28;19921;-79
2022/05/29 02:33:20;;;;;;;;;;;7.40;99.90;;;;;;5034584;28;19921;-79
2022/05/29 02:35:53;;;;;;;;;;;7.40;99.90;;;;;;5034534;28;19921;-78
2022/05/29 02:38:22;;;;;;;;;;;7.40;99.90;;;;;;5032793;28;19925;-79
2022/05/29 02:40:52;;;;;;;;;;;7.40;99.90;;;;;;5033267;28;20264;-79
2022/05/29 02:43:21;;;;;;;;;;;7.30;99.90;;;;;;5014164;28;20435;-78
2022/05/29 02:45:54;;;;;;;;;;;7.30;99.90;;;;;;5029333;28;19974;-78
2022/05/29 02:48:27;;;;;;;;;;;7.30;99.90;;;;;;5035799;28;20024;-77
2022/05/29 02:50:58;;;;;;;;;;;7.30;99.90;;;;;;5035217;28;19925;-77
2022/05/29 02:53:25;;;;;;;;;;;7.30;99.90;;;;;;5025732;28;20351;-77
2022/05/29 02:55:54;;;;;;;;;;;7.20;99.90;;;;;;5012739;28;19925;-78
2022/05/29 02:58:23;;;;;;;;;;;7.20;99.90;;;;;;5029057;28;19963;-78
2022/05/29 03:00:57;;;;;;;;;;;7.10;99.90;;;;;;5029064;28;20620;-78
2022/05/29 03:03:29;;;;;;;;;;;7.10;99.90;;;;;;5013480;28;19956;-78
2022/05/29 03:06:09;;;;;;;;;;;7.10;99.90;;;;;;5028314;28;20011;-78
2022/05/29 03:08:42;;;;;;;;;;;7.10;99.90;;;;;;5048611;28;20380;-77
2022/05/29 03:11:12;;;;;;;;;;;7.10;99.90;;;;;;5054271;28;19932;-79
2022/05/29 03:13:45;;;;;;;;;;;7.10;99.90;;;;;;5036227;28;19925;-79
2022/05/29 03:16:17;;;;;;;;;;;7.20;99.90;;;;;;5036884;28;20908;-80
2022/05/29 03:18:46;;;;;;;;;;;7.40;99.90;;;;;;5040321;28;19925;-80
2022/05/29 03:21:18;;;;;;;;;;;7.40;99.90;;;;;;5035985;28;19952;-80
2022/05/29 03:23:48;;;;;;;;;;;7.50;99.90;;;;;;5036988;28;19925;-79
2022/05/29 03:26:19;;;;;;;;;;;7.60;99.90;;;;;;5044709;28;19936;-81
2022/05/29 03:28:48;;;;;;;;;;;7.70;99.90;;;;;;5050303;28;20002;-81
2022/05/29 03:31:17;;;;;;;;;;;7.70;99.90;;;;;;5041115;28;20220;-81
2022/05/29 03:33:47;;;;;;;;;;;7.80;99.90;;;;;;5052552;28;19931;-80
2022/05/29 03:36:16;;;;;;;;;;;7.80;99.90;;;;;;5060280;28;19948;-80
2022/05/29 03:38:46;;;;;;;;;;;8.00;99.90;;;;;;5057817;28;19921;-80
2022/05/29 03:41:16;;;;;;;;;;;8.00;99.90;;;;;;5042261;28;19928;-80
2022/05/29 03:43:43;;;;;;;;;;;8.10;99.90;;;;;;5034442;28;19921;-80
2022/05/29 03:46:10;;;;;;;;;;;8.20;99.90;;;;;;5048904;28;19926;-78
2022/05/29 03:48:37;;;;;;;;;;;8.50;99.90;;;;;;5031547;28;19925;-79
2022/05/29 03:51:07;;;;;;;;;;;8.40;99.90;;;;;;5047148;28;20035;-79
2022/05/29 03:53:34;;;;;;;;;;;8.60;99.90;;;;;;5044317;28;19928;-82
2022/05/29 03:56:03;;;;;;;;;;;8.70;99.90;;;;;;5039351;28;19917;-82
2022/05/29 03:58:30;;;;;;;;;;;;;;;;;;5049621;28;19932;-84
2022/05/29 04:00:57;;;;;;;;;;;9.10;99.90;;;;;;5045483;28;19920;-83
2022/05/29 04:03:24;;;;;;;;;;;9.30;99.90;;;;;;5029491;28;19921;-84
2022/05/29 04:05:52;;;;;;;;;;;9.40;99.90;;;;;;5041340;28;20381;-87
2022/05/29 04:13:50;;;;;;;;;;;9.80;99.90;;;;;;5034668;28;20450;-83
2022/05/29 04:16:17;;;;;;;;;;;9.90;99.90;;;;;;5042759;28;20249;-86
2022/05/29 04:18:44;;;;;;;;;;;10.00;99.90;;;;;;5036009;28;19928;-85
2022/05/29 04:21:11;;;;;;;;;;;10.00;99.90;;;;;;5026663;28;19925;-83
2022/05/29 04:23:40;;;;;;;;;;;10.10;99.90;;;;;;5038881;28;20341;-82
2022/05/29 04:26:06;;;;;;;;;;;10.20;99.90;;;;;;5040215;28;20035;-81
2022/05/29 04:28:33;;;;;;;;;;;10.30;99.90;;;;;;5028357;28;19932;-82
2022/05/29 04:31:00;;;;;;;;;;;10.30;99.90;;;;;;5041163;28;19925;-84
2022/05/29 04:33:26;;;;;;;;;;;10.30;99.90;;;;;;5045695;28;20791;-81
2022/05/29 04:35:54;;;;;;;;;;;9.90;99.90;;;;;;5051677;28;19929;-82
2022/05/29 04:38:23;;;;;;;;;;;10.40;99.90;;;;;;5033571;28;19944;-85
2022/05/29 04:40:51;;;;;;;;;;;10.50;99.90;;;;;;5042510;28;19944;-80
2022/05/29 04:43:19;;;;;;;;;;;10.50;99.90;;;;;;5038270;28;19940;-81
2022/05/29 04:45:45;;;;;;;;;;;10.50;99.90;;;;;;5036055;28;19932;-80
2022/05/29 04:48:12;;;;;;;;;;;10.60;99.90;;;;;;5036387;28;19925;-80
2022/05/29 04:50:40;;;;;;;;;;;10.60;99.90;;;;;;5033698;28;19983;-81
2022/05/29 04:53:08;;;;;;;;;;;10.60;99.90;;;;;;5031994;28;19967;-81
2022/05/29 04:55:35;;;;;;;;;;;10.60;99.90;;;;;;5041685;28;19921;-82
2022/05/29 04:58:03;;;;;;;;;;;10.70;99.90;;;;;;5042218;28;19925;-82
2022/05/29 05:00:30;;;;;;;;;;;10.70;99.90;;;;;;5028435;28;19933;-80
2022/05/29 05:02:57;;;;;;;;;;;10.80;99.90;;;;;;5033947;28;19932;-80
2022/05/29 05:05:24;;;;;;;;;;;10.80;99.90;;;;;;5020411;28;19921;-80
2022/05/29 05:07:51;;;;;;;;;;;10.90;99.90;;;;;;5021753;28;19974;-82
2022/05/29 05:10:18;;;;;;;;;;;11.00;99.90;;;;;;5017215;28;20405;-78
2022/05/29 05:12:46;;;;;;;;;;;11.00;99.90;;;;;;5002196;28;19925;-78
2022/05/29 05:15:15;;;;;;;;;;;11.10;99.90;;;;;;5030964;28;19929;-78
2022/05/29 05:17:42;;;;;;;;;;;11.10;99.90;;;;;;5013915;28;19925;-77
2022/05/29 05:20:10;;;;;;;;;;;11.10;99.90;;;;;;5014299;28;19971;-80
2022/05/29 05:22:37;;;;;;;;;;;11.10;99.90;;;;;;5032693;28;19921;-79
2022/05/29 05:25:04;;;;;;;;;;;11.10;99.90;;;;;;5022309;28;19921;-79
2022/05/29 05:27:32;;;;;;;;;;;11.10;99.90;;;;;;5028485;28;19920;-79
2022/05/29 05:29:59;;;;;;;;;;;11.10;99.90;;;;;;4994353;28;19922;-79
2022/05/29 05:32:27;;;;;;;;;;;11.10;99.90;;;;;;5014615;28;20319;-79
2022/05/29 05:34:54;;;;;;;;;;;11.10;99.90;;;;;;5015057;28;19987;-79
2022/05/29 05:37:21;;;;;;;;;;;11.10;99.90;;;;;;5029280;28;20730;-80
2022/05/29 05:39:48;;;;;;;;;;;11.20;99.90;;;;;;5018903;28;20368;-79
2022/05/29 05:42:16;;;;;;;;;;;11.30;99.90;;;;;;5014417;28;19925;-78
2022/05/29 05:44:43;;;;;;;;;;;11.30;99.90;;;;;;5013832;28;19994;-78
2022/05/29 05:47:09;;;;;;;;;;;11.40;99.90;;;;;;5029279;28;19940;-79
2022/05/29 05:49:38;;;;;;;;;;;11.50;99.90;;;;;;5005499;28;19931;-78
2022/05/29 05:52:05;;;;;;;;;;;11.70;99.90;;;;;;5013511;28;19921;-78
2022/05/29 05:54:34;;;;;;;;;;;11.70;99.90;;;;;;5002725;28;19940;-78
2022/05/29 05:57:01;;;;;;;;;;;11.80;99.90;;;;;;5027593;28;19925;-78
2022/05/29 05:59:28;;;;;;;;;;;11.90;99.90;;;;;;5035228;28;20012;-78
2022/05/29 06:01:56;;;;;;;;;;;12.00;99.90;;;;;;5028480;28;19966;-78
2022/05/29 06:04:23;;;;;;;;;;;12.20;99.90;;;;;;5017702;28;19920;-78
2022/05/29 06:06:51;;;;;;;;;;;12.30;99.90;;;;;;5036246;28;19936;-80
2022/05/29 06:09:20;;;;;;;;;;;12.60;99.90;;;;;;5035884;28;19928;-79
2022/05/29 06:11:47;;;;;;;;;;;12.90;99.90;;;;;;5026327;28;19925;-79
2022/05/29 06:14:14;;;;;;;;;;;13.10;99.90;;;;;;5022312;28;20644;-79
2022/05/29 06:16:44;;;;;;;;;;;13.30;99.90;;;;;;5014950;28;19929;-78
2022/05/29 06:19:13;;;;;;;;;;;13.40;99.90;;;;;;5033430;28;19909;-80
2022/05/29 06:21:46;;;;;;;;;;;13.40;99.90;;;;;;5031955;28;19928;-80
2022/05/29 06:24:15;;;;;;;;;;;13.50;99.90;;;;;;5046216;28;19936;-78
2022/05/29 06:26:50;;;;;;;;;;;13.60;99.90;;;;;;5029795;28;19979;-80
2022/05/29 06:29:18;;;;;;;;;;;13.70;99.90;;;;;;5039507;28;20424;-78
2022/05/29 06:31:53;;;;;;;;;;;13.70;99.90;;;;;;5029858;28;19921;-81
2022/05/29 06:34:27;;;;;;;;;;;13.80;99.90;;;;;;5029676;28;19925;-82
2022/05/29 06:36:54;;;;;;;;;;;13.90;99.90;;;;;;5031882;28;19925;-83
2022/05/29 06:39:24;;;;;;;;;;;14.00;99.90;;;;;;5045733;28;19929;-80
2022/05/29 06:41:53;;;;;;;;;;;14.10;99.90;;;;;;5028105;28;19920;-79
2022/05/29 06:44:25;;;;;;;;;;;14.40;99.90;;;;;;5047287;28;19924;-80
2022/05/29 06:46:52;;;;;;;;;;;15.10;99.90;;;;;;5041965;28;19927;-80
2022/05/29 06:49:20;;;;;;;;;;;15.50;99.90;;;;;;5024667;28;19960;-79
2022/05/29 06:51:48;;;;;;;;;;;15.60;99.90;;;;;;5018384;28;19920;-80
2022/05/29 06:54:46;;;;;;;;;;;15.60;99.90;;;;;;5029915;28;19925;-76
2022/05/29 07:08:53;;;;;;;;;;;15.30;99.90;;;;;;5051199;28;19920;-78
2022/05/29 07:11:30;;;;;;;;;;;15.30;99.90;;;;;;5050411;28;19932;-77
2022/05/29 07:13:59;;;;;;;;;;;15.30;99.90;;;;;;5031281;28;19977;-79
2022/05/29 07:16:46;;;;;;;;;;;15.40;99.90;;;;;;5030752;28;20268;-78
2022/05/29 07:19:19;;;;;;;;;;;16.50;99.90;;;;;;5031891;28;20415;-78
2022/05/29 07:21:57;;;;;;;;;;;16.80;99.90;;;;;;5035325;28;19948;-81
2022/05/29 07:24:26;;;;;;;;;;;17.50;99.90;;;;;;5033923;28;19929;-76
2022/05/29 07:26:54;;;;;;;;;;;18.10;99.90;;;;;;5029917;28;19924;-77
2022/05/29 07:29:21;;;;;;;;;;;18.40;99.90;;;;;;5027703;28;20312;-76
2022/05/29 07:31:51;;;;;;;;;;;18.40;99.90;;;;;;5026063;28;19975;-77
2022/05/29 07:34:18;;;;;;;;;;;18.00;99.90;;;;;;5012337;28;19932;-78
2022/05/29 07:36:45;;;;;;;;;;;17.60;99.90;;;;;;5008638;28;20058;-76
2022/05/29 07:44:38;;;;;;;;;;;16.80;99.90;;;;;;4985791;28;19980;-78
2022/05/29 07:47:16;;;;;;;;;;;18.30;99.90;;;;;;4995045;28;20349;-78
2022/05/29 07:49:43;;;;;;;;;;;19.40;99.90;;;;;;5003790;28;20629;-80
2022/05/29 07:52:10;;;;;;;;;;;20.00;99.90;;;;;;5003250;28;19934;-80
2022/05/29 07:54:38;;;;;;;;;;;19.90;99.90;;;;;;5003170;28;19985;-81
2022/05/29 07:57:05;;;;;;;;;;;19.80;99.90;;;;;;4984540;28;19923;-79
2022/05/29 07:59:32;;;;;;;;;;;19.70;99.90;;;;;;4982790;28;19984;-78
2022/05/29 08:02:01;;;;;;;;;;;20.00;99.90;;;;;;4984486;28;19929;-77
2022/05/29 08:04:29;;;;;;;;;;;20.90;99.90;;;;;;4977028;28;19933;-78
2022/05/29 08:06:56;;;;;;;;;;;21.00;99.90;;;;;;4994804;28;19925;-77
2022/05/29 08:09:23;;;;;;;;;;;21.00;99.90;;;;;;4994204;28;19976;-78
2022/05/29 08:11:50;;;;;;;;;;;21.40;99.90;;;;;;4990859;28;19932;-77
2022/05/29 08:14:19;;;;;;;;;;;22.90;99.90;;;;;;4995757;28;19921;-77
2022/05/29 08:16:50;;;;;;;;;;;24.50;99.90;;;;;;4991727;28;19988;-77
2022/05/29 08:19:17;;;;;;;;;;;26.80;99.90;;;;;;4996054;28;20009;-79
2022/05/29 08:21:45;;;;;;;;;;;28.00;99.90;;;;;;4979863;28;19925;-78
2022/05/29 08:32:37;;;;;;;;;;;27.10;94.00;;;;;;4965137;28;19922;-80
2022/05/29 08:35:04;;;;;;;;;;;26.90;93.30;;;;;;4992876;28;19930;-79
2022/05/29 08:37:33;;;;;;;;;;;25.50;92.20;;;;;;4993085;28;19932;-78
2022/05/29 08:40:00;;;;;;;;;;;24.80;92.30;;;;;;4990885;28;19932;-78
2022/05/29 08:42:30;;;;;;;;;;;24.10;92.90;;;;;;4984698;28;19922;-78
2022/05/29 08:44:59;;;;;;;;;;;23.40;92.90;;;;;;4998983;28;20338;-78
2022/05/29 08:47:27;;;;;;;;;;;22.50;93.00;;;;;;4975174;28;19922;-78
2022/05/29 08:49:54;;;;;;;;;;;21.80;93.60;;;;;;4995196;28;19929;-79
2022/05/29 08:52:32;;;;;;;;;;;21.70;94.90;;;;;;4979573;28;20005;-79
2022/05/29 08:55:08;;;;;;;;;;;23.40;97.10;;;;;;4995047;28;19922;-80
2022/05/29 08:57:40;;;;;;;;;;;22.90;97.40;;;;;;4996846;28;19925;-81
2022/05/29 09:00:08;;;;;;;;;;;23.60;95.70;;;;;;4980532;28;19921;-80
2022/05/29 09:02:53;;;;;;;;;;;23.50;93.60;;;;;;4981159;28;19922;-80
2022/05/29 09:05:23;;;;;;;;;;;23.00;92.70;;;;;;4978505;28;20317;-82
2022/05/29 09:07:55;;;;;;;;;;;21.80;92.70;;;;;;4982145;28;19988;-79
2022/05/29 09:10:35;;;;;;;;;;;21.20;92.60;;;;;;4984618;28;19929;-78
2022/05/29 09:13:04;;;;;;;;;;;21.10;92.80;;;;;;5008866;28;19926;-79
2022/05/29 09:15:37;;;;;;;;;;;21.00;94.00;;;;;;4998503;28;19928;-77
2022/05/29 09:18:07;;;;;;;;;;;21.50;95.70;;;;;;4992960;28;19930;-80
2022/05/29 09:20:38;;;;;;;;;;;22.70;97.10;;;;;;4978827;28;19953;-79
2022/05/29 09:23:07;;;;;;;;;;;24.20;94.20;;;;;;4972697;28;19926;-82
2022/05/29 09:25:36;;;;;;;;;;;25.20;94.20;;;;;;4990203;28;19979;-80
2022/05/29 09:28:07;;;;;;;39.50;9.65;;;26.40;94.80;;;;;;4979864;28;20057;-79
2022/05/29 09:30:35;;;;;;;47.38;11.23;;;27.00;92.90;;;;;;4990156;28;20609;-78
2022/05/29 09:33:06;;;;;;;48.78;10.82;;;27.70;88.80;;;;;;5001258;28;20211;-80
2022/05/29 09:35:40;;;;;;;58.45;11.88;;;27.10;87.50;;;;;;5001399;28;20214;-80
2022/05/29 09:38:18;;;;;;;51.60;10.50;;;26.10;86.30;;;;;;5004117;28;20217;-79
2022/05/29 09:40:57;;;;;;;55.67;11.48;;;24.90;87.20;;;;;;4967449;28;20239;-79
2022/05/29 09:43:28;;;;;;;55.05;11.32;;;24.70;90.10;;;;;;4976901;28;20219;-82
2022/05/29 09:45:57;;;;;;;53.65;11.23;;;24.80;90.70;;;;;;4977834;28;20247;-82
2022/05/29 09:51:23;;;;;;;53.13;11.13;;;25.20;89.20;;;;;;4973594;28;20210;-84
2022/05/29 09:53:56;;;;;;;59.93;12.10;;;24.60;86.50;;;;;;4974420;28;20222;-82
2022/05/29 09:56:32;;;;;;;56.27;10.87;;;23.90;86.30;;;;;;4974067;28;20244;-83
2022/05/29 09:59:03;;;;;;;65.27;13.10;;;22.60;87.30;;;;;;4979651;28;20226;-82
2022/05/29 10:01:36;;;;;;;55.90;10.90;;;22.40;88.90;;;;;;4973586;28;20226;-81
2022/05/29 10:04:06;;;;;;;;;;;21.50;89.60;;;;;;4967346;28;20210;-81
2022/05/29 10:06:34;;;;;;;;;;;20.10;90.10;;;;;;4973487;28;19926;-80
2022/05/29 10:09:09;;;;;;;;;;;17.80;91.40;;;;;;4973560;28;19956;-80
2022/05/29 10:11:38;;;;;;;;;;;17.70;92.50;;;;;;4984334;28;19969;-81
2022/05/29 10:14:22;;;;;;;;;;;17.30;94.20;;;;;;4980004;28;19932;-84
2022/05/29 10:16:50;;;;;;;;;;;17.30;95.30;;;;;;4988751;28;20369;-83
2022/05/29 10:19:32;;;;;;;;;;;17.80;96.60;;;;;;4989226;28;19948;-84
2022/05/29 10:22:00;;;;;;;;;;;17.90;97.30;;;;;;4983502;28;20313;-82
2022/05/29 10:24:32;;;;;;;;;;;18.60;97.90;;;;;;4983319;28;20013;-82
2022/05/29 10:27:02;;;;;;;;;;;18.70;98.30;;;;;;4969506;28;20297;-78
2022/05/29 10:29:31;;;;;;;;;;;18.80;98.30;;;;;;4994058;28;19922;-80
2022/05/29 10:31:59;;;;;;;;;;;19.20;98.60;;;;;;4966084;28;20237;-78
2022/05/29 10:34:28;;;;;;;;;;;19.80;99.10;;;;;;4979430;28;19980;-80
2022/05/29 10:36:56;;;;;;;;;;;20.00;99.40;;;;;;4974722;28;19926;-80
2022/05/29 10:39:26;;;;;;;;;;;20.30;99.00;;;;;;4966994;28;20520;-78
2022/05/29 10:41:54;;;;;;;;;;;20.70;98.20;;;;;;5000213;28;20000;-79
2022/05/29 10:44:42;;;;;;;;;;;20.90;97.60;;;;;;4981995;28;19929;-79
2022/05/29 10:47:14;;;;;;;;;;;21.10;96.60;;;;;;4985696;28;19932;-82
2022/05/29 10:49:46;;;;;;;;;;;21.10;96.80;;;;;;5004856;28;20353;-80
2022/05/29 10:52:21;;;;;;;;;;;21.20;96.30;;;;;;5001361;28;19922;-79
2022/05/29 10:55:01;;;;;;;;;;;21.50;96.70;;;;;;4986040;28;19932;-80
2022/05/29 10:57:44;;;;;;;;;;;22.20;96.60;;;;;;4986878;28;19922;-79
2022/05/29 11:00:19;;;;;;;;;;;22.40;95.60;;;;;;5483331;22;19925;-81
2022/05/29 11:05:56;;;;;;;;;;;22.40;94.90;;;;;;5002316;28;19922;-81
2022/05/29 11:08:29;;;;;;;;;;;22.60;95.10;;;;;;5001878;28;19929;-81
2022/05/29 11:11:03;;;;;;;;;;;22.90;94.90;;;;;;5002422;28;19921;-80
2022/05/29 11:13:47;;;;;;;;;;;23.30;94.60;;;;;;5019612;28;19943;-81
2022/05/29 11:16:20;;;;;;;;;;;23.40;94.10;;;;;;5001345;28;19925;-80
2022/05/29 11:19:03;;;;;;;;;;;23.00;92.90;;;;;;5000468;28;20321;-80
2022/05/29 11:21:38;;;;;;;;;;;22.50;93.00;;;;;;5000485;28;20381;-81
2022/05/29 11:24:21;;;;;;;;;;;22.40;93.10;;;;;;4999763;28;20009;-80
2022/05/29 11:26:52;;;;;;;;;;;22.20;93.00;;;;;;4992444;28;19936;-80
2022/05/29 11:29:33;;;;;;;;;;;22.00;93.60;;;;;;5015972;28;20332;-79
2022/05/29 11:32:06;;;;;;;;;;;22.10;93.60;;;;;;4999753;28;19983;-81
2022/05/29 11:34:35;;;;;;;;;;;22.40;93.50;;;;;;4999327;28;20039;-82
2022/05/29 11:37:20;;;;;;;;;;;22.80;93.70;;;;;;4998375;28;19925;-79
2022/05/29 11:39:50;;;;;;;;;;;23.20;93.30;;;;;;4999127;28;19936;-79
2022/05/29 11:42:19;;;;;;;;;;;23.90;92.30;;;;;;5001679;28;19921;-81
2022/05/29 11:44:51;;;;;;;;;;;23.90;92.30;;;;;;5002678;28;20439;-80
2022/05/29 11:52:58;;;;;;;;;;;24.30;91.10;;;;;;5018310;28;20052;-78
2022/05/29 11:55:27;;;;;;;;;;;24.40;90.20;;;;;;4996402;28;19932;-79
2022/05/29 11:57:56;;;;;;;;;;;24.30;87.90;;;;;;5003650;28;19941;-77
2022/05/29 12:00:31;;;;;;;;;;;24.00;87.60;;;;;;4994542;28;19921;-78
2022/05/29 12:03:04;;;;;;;;;;;23.70;87.70;;;;;;4994560;28;19932;-77
2022/05/29 12:05:34;;;;;;;;;;;23.40;88.20;;;;;;4992810;28;19926;-76
2022/05/29 12:08:04;;;;;;;;;;;23.30;88.90;;;;;;4975843;28;19930;-76
2022/05/29 12:10:33;;;;;;;;;;;23.30;88.40;;;;;;4995222;28;19987;-77
2022/05/29 12:13:06;;;;;;;;;;;23.30;89.40;;;;;;5002467;28;19954;-78
2022/05/29 12:15:34;;;;;;;;;;;23.30;89.50;;;;;;5006978;28;19932;-78
2022/05/29 12:18:04;;;;;;;;;;;23.20;89.80;;;;;;5002859;28;19932;-79
2022/05/29 12:20:36;;;;;;;;;;;23.30;90.00;;;;;;5015606;28;19925;-79
2022/05/29 12:23:09;;;;;;;;;;;23.40;90.20;;;;;;5002400;28;19929;-80
2022/05/29 12:25:47;;;;;;;;;;;23.70;89.00;;;;;;5005094;28;20329;-80
2022/05/29 12:28:30;;;;;;;;;;;24.00;89.60;;;;;;5002828;28;19964;-78
2022/05/29 12:30:59;;;;;;;;;;;24.50;89.00;;;;;;5013978;28;19921;-79
2022/05/29 12:33:28;;;;;;;;;;;24.70;89.10;;;;;;5025118;28;20016;-78
2022/05/29 12:36:00;;;;;;;;;;;25.10;85.30;;;;;;5003596;28;19922;-79
2022/05/29 12:38:36;;;;;;;;;;;;;;;;;;5006747;28;20131;-79
2022/05/29 12:41:18;;;;;;;;;;;25.00;83.90;;;;;;4992592;28;19932;-78
2022/05/29 12:44:01;;;;;;;;;;;24.80;84.50;;;;;;5014996;28;19925;-78
2022/05/29 12:46:35;;;;;;;;;;;24.80;85.10;;;;;;5008577;28;19922;-79
2022/05/29 12:49:04;;;;;;;;;;;;;;;;;;4993771;28;20369;-77
2022/05/29 12:51:49;;;;;;;;;;;24.90;83.30;;;;;;5001326;28;19944;-76
2022/05/29 12:54:37;;;;;;;;;;;24.80;82.80;;;;;;4982915;28;20020;-78
2022/05/29 12:57:32;;;;;;;;;;;24.60;82.60;;;;;;5006987;28;19936;-77
2022/05/29 13:00:26;;;;;;;;;;;23.90;82.00;;;;;;5553445;22;20188;-77
2022/05/29 13:03:10;;;;;;;;;;;23.90;82.00;;;;;;5029268;28;19925;-78
2022/05/29 13:05:53;;;;;;;;;;;22.90;81.70;;;;;;5026628;28;19921;-77
2022/05/29 13:08:32;;;;;;;;;;;21.60;83.50;;;;;;5009004;28;19932;-78
2022/05/29 13:11:01;;;;;;;;;;;20.60;85.40;;;;;;5008178;28;20523;-77
2022/05/29 13:13:34;;;;;;;;;;;19.10;84.60;;;;;;4992078;28;20400;-78
2022/05/29 13:16:21;;;;;;;;;;;18.90;87.20;;;;;;4992079;28;19925;-77
2022/05/29 13:19:13;;;;;;;;;;;18.00;88.90;;;;;;4992747;28;20440;-77
2022/05/29 13:21:53;;;;;;;;;;;18.00;90.40;;;;;;4997141;28;20008;-80
2022/05/29 13:24:21;;;;;;;;;;;18.20;91.30;;;;;;5004585;28;19925;-79
2022/05/29 13:27:10;;;;;;;;;;;18.70;91.60;;;;;;4993629;28;20229;-79
2022/05/29 13:29:40;;;;;;;;;;;19.20;91.80;;;;;;4992274;28;20011;-80
2022/05/29 13:32:18;;;;;;;;;;;19.90;92.00;;;;;;4998560;28;19909;-79
2022/05/29 13:34:46;;;;;;;;;;;20.40;91.70;;;;;;4995216;28;19925;-80
2022/05/29 13:37:22;;;;;;;;;;;20.90;91.40;;;;;;4993712;28;21257;-79
2022/05/29 13:40:06;;;;;;;;;;;21.40;91.40;;;;;;5014286;28;20258;-79
2022/05/29 13:42:39;;;;;;;;;;;21.90;91.30;;;;;;5015508;28;20357;-79
2022/05/29 13:45:24;;;;;;;;;;;22.40;90.70;;;;;;4998357;28;20416;-80
2022/05/29 13:48:07;;;;;;;;;;;22.60;89.70;;;;;;4997599;28;19989;-79
2022/05/29 13:50:41;;;;;;;;;;;22.70;89.80;;;;;;5008288;28;19925;-79
2022/05/29 13:53:13;;;;;;;;;;;22.80;88.10;;;;;;5011656;28;19925;-82
2022/05/29 13:55:58;;;;;;;;;;;22.40;87.20;;;;;;4994624;28;20344;-80
2022/05/29 14:04:06;;;;;;;;;;;22.20;85.70;;;;;;4995411;28;19961;-80
2022/05/29 14:06:35;;;;;;;;;;;22.10;85.60;;;;;;5014516;28;20059;-80
2022/05/29 14:09:06;;;;;;;;;;;22.10;86.20;;;;;;5018703;28;19931;-79
2022/05/29 14:11:51;;;;;;;;;;;21.70;86.00;;;;;;4986390;28;19979;-79
2022/05/29 14:14:37;;;;;;;;;;;22.10;87.10;;;;;;4993659;28;19925;-79
2022/05/29 14:17:09;;;;;;;;;;;22.20;86.80;;;;;;5010112;28;19925;-79
2022/05/29 14:19:45;;;;;;;;;;;22.10;85.60;;;;;;4997135;28;20385;-81
2022/05/29 14:22:23;;;;;;;;;;;22.20;86.90;;;;;;4995256;28;19933;-80
2022/05/29 14:25:00;;;;;;;;;;;22.30;86.60;;;;;;5009816;28;20408;-80
2022/05/29 14:27:39;;;;;;;;;;;21.30;86.30;;;;;;5006654;28;20024;-80
2022/05/29 14:30:07;;;;;;;;;;;22.30;86.50;;;;;;5010370;28;19921;-80
2022/05/29 14:32:41;;;;;;;;;;;21.90;85.70;;;;;;5009566;28;19922;-80
2022/05/29 14:35:19;;;;;;;;;;;21.50;85.50;;;;;;5016813;28;19922;-80
2022/05/29 14:37:55;;;;;;;;;;;21.10;86.30;;;;;;5014155;28;20017;-80
2022/05/29 14:40:47;;;;;;;;;;;20.70;85.90;;;;;;5016643;28;19933;-80
2022/05/29 14:43:17;;;;;;;;;;;20.30;87.30;;;;;;5017486;28;19929;-79
2022/05/29 14:46:00;;;;;;;;;;;19.40;87.60;;;;;;4996570;28;19941;-79
2022/05/29 14:48:32;;;;;;;;;;;18.50;88.30;;;;;;5012271;28;19921;-80
2022/05/29 14:51:11;;;;;;;;;;;17.30;89.40;;;;;;5001429;28;19929;-80
2022/05/29 14:53:41;;;;;;;;;;;17.30;90.20;;;;;;5003822;28;20277;-80
2022/05/29 14:56:12;;;;;;;;;;;16.90;90.70;;;;;;5004145;28;19921;-80
2022/05/29 14:58:44;;;;;;;;;;;16.70;91.20;;;;;;5002728;28;19996;-80
2022/05/29 15:01:15;;;;;;;;;;;16.70;91.60;;;;;;4996819;28;19945;-80
2022/05/29 15:03:43;;;;;;;;;;;16.80;92.20;;;;;;5020130;28;19929;-80
2022/05/29 15:06:12;;;;;;;;;;;17.10;92.00;;;;;;5004683;28;19948;-80
2022/05/29 15:11:25;;;;;;;;;;;16.60;92.60;;;;;;5013674;28;19925;-79
2022/05/29 15:14:00;;;;;;;;;;;;;;;;;;4999743;28;19929;-79
2022/05/29 15:16:28;;;;;;;;;;;18.10;93.00;;;;;;5001757;28;19940;-81
2022/05/29 15:18:56;;;;;;;;;;;18.50;93.40;;;;;;4999813;28;20031;-81
2022/05/29 15:24:23;;;;;;;;;;;19.40;93.10;;;;;;5021497;28;19981;-81
2022/05/29 15:26:51;;;;;;;;;;;19.80;92.90;;;;;;5017038;28;19929;-81
2022/05/29 15:29:20;;;;;;;;;;;19.90;92.30;;;;;;5004574;28;19921;-81
2022/05/29 15:31:48;;;;;;;;;;;19.80;91.40;;;;;;4998976;28;19979;-80
2022/05/29 15:34:31;;;;;;;;;;;19.40;91.60;;;;;;4999216;28;19966;-81
2022/05/29 15:37:11;;;;;;;;;;;19.10;92.00;;;;;;4996324;28;19956;-78